createdAt,value
2018-02-05T00:00:59.590Z,10.48
2018-02-05T00:02:02.084Z,9.50
2018-02-05T00:03:04.551Z,9.95
2018-02-05T00:04:07.053Z,9.55
2018-02-05T00:05:09.545Z,10.88
2018-02-05T00:06:12.073Z,9.45
2018-02-05T00:07:14.514Z,9.27
2018-02-05T00:08:16.992Z,9.95
2018-02-05T00:09:19.472Z,9.13
2018-02-05T00:10:21.961Z,9.70
2018-02-05T00:11:24.449Z,10.38
2018-02-05T00:12:26.973Z,9.70
2018-02-05T00:13:29.434Z,8.50
2018-02-05T00:14:31.895Z,8.95
2018-02-05T00:15:34.385Z,8.10
2018-02-05T00:16:36.851Z,8.90
2018-02-05T00:17:39.330Z,9.38
2018-02-05T00:18:41.803Z,9.75
2018-02-05T00:19:44.290Z,9.77
2018-02-05T00:20:46.763Z,9.15
2018-02-05T00:21:49.253Z,9.38
2018-02-05T00:22:51.734Z,10.02
2018-02-05T00:23:54.203Z,8.70
2018-02-05T00:24:56.681Z,9.77
2018-02-05T00:25:59.292Z,10.85
2018-02-05T00:27:01.778Z,10.10
2018-02-05T00:28:04.262Z,10.25
2018-02-05T00:29:06.732Z,10.68
2018-02-05T00:30:09.218Z,9.38
2018-02-05T00:31:11.704Z,8.82
2018-02-05T00:32:14.180Z,9.93
2018-02-05T00:33:16.717Z,9.80
2018-02-05T00:34:19.199Z,9.45
2018-02-05T00:35:21.689Z,9.80
2018-02-05T00:36:24.322Z,9.45
2018-02-05T00:37:26.803Z,10.15
2018-02-05T00:38:29.288Z,10.45
2018-02-05T00:39:31.764Z,9.65
2018-02-05T00:40:34.231Z,10.02
2018-02-05T00:41:36.696Z,10.40
2018-02-05T00:42:39.182Z,10.07
2018-02-05T00:43:41.658Z,7.82
2018-02-05T00:44:44.138Z,10.00
2018-02-05T00:45:46.637Z,10.13
2018-02-05T00:46:49.119Z,9.82
2018-02-05T00:47:51.596Z,8.80
2018-02-05T00:48:54.101Z,9.75
2018-02-05T00:49:56.568Z,9.13
2018-02-05T00:50:59.044Z,9.32
2018-02-05T00:52:01.525Z,8.90
2018-02-05T00:53:03.994Z,9.68
2018-02-05T00:54:06.489Z,10.02
2018-02-05T00:55:08.984Z,9.63
2018-02-05T00:56:11.478Z,8.85
2018-02-05T00:57:13.950Z,9.43
2018-02-05T00:58:16.437Z,10.70
2018-02-05T00:59:18.937Z,8.80
2018-02-05T01:00:21.467Z,10.07
2018-02-05T01:01:23.962Z,9.65
2018-02-05T01:02:26.449Z,10.15
2018-02-05T01:03:28.923Z,9.27
2018-02-05T01:04:31.395Z,8.38
2018-02-05T01:05:33.872Z,8.77
2018-02-05T01:06:36.338Z,9.77
2018-02-05T01:07:38.814Z,8.63
2018-02-05T01:08:41.287Z,8.30
2018-02-05T01:09:43.754Z,8.65
2018-02-05T01:10:46.244Z,9.30
2018-02-05T01:11:48.720Z,9.50
2018-02-05T01:12:51.221Z,8.52
2018-02-05T01:13:53.690Z,9.32
2018-02-05T01:14:56.174Z,9.82
2018-02-05T01:15:58.643Z,9.23
2018-02-05T01:17:01.115Z,8.63
2018-02-05T01:18:03.602Z,8.57
2018-02-05T01:19:06.067Z,9.45
2018-02-05T01:20:08.566Z,9.15
2018-02-05T01:21:11.045Z,9.80
2018-02-05T01:22:13.539Z,8.95
2018-02-05T01:23:16.029Z,9.65
2018-02-05T01:24:18.530Z,9.90
2018-02-05T01:25:21.017Z,7.87
2018-02-05T01:26:23.495Z,8.88
2018-02-05T01:27:25.991Z,10.00
2018-02-05T01:28:28.481Z,9.00
2018-02-05T01:29:30.968Z,8.80
2018-02-05T01:30:33.456Z,9.30
2018-02-05T01:31:35.937Z,10.20
2018-02-05T01:32:38.430Z,9.20
2018-02-05T01:33:40.920Z,10.10
2018-02-05T01:34:43.441Z,8.60
2018-02-05T01:35:46.127Z,8.93
2018-02-05T01:36:48.611Z,9.02
2018-02-05T01:37:51.098Z,8.93
2018-02-05T01:38:53.593Z,9.05
2018-02-05T01:39:56.076Z,9.15
2018-02-05T01:40:58.556Z,9.10
2018-02-05T01:42:01.036Z,8.43
2018-02-05T01:43:03.508Z,9.13
2018-02-05T01:44:05.984Z,8.38
2018-02-05T01:45:08.466Z,9.75
2018-02-05T01:46:10.948Z,9.60
2018-02-05T01:47:13.449Z,9.10
2018-02-05T01:48:15.914Z,9.25
2018-02-05T01:49:18.397Z,8.40
2018-02-05T01:50:20.871Z,9.65
2018-02-05T01:51:23.356Z,9.73
2018-02-05T01:52:25.836Z,8.25
2018-02-05T01:53:28.308Z,9.15
2018-02-05T01:54:30.774Z,8.13
2018-02-05T01:55:33.248Z,9.02
2018-02-05T01:56:35.714Z,8.55
2018-02-05T01:57:38.186Z,8.85
2018-02-05T01:58:40.682Z,9.73
2018-02-05T01:59:43.209Z,8.70
2018-02-05T02:00:45.744Z,8.65
2018-02-05T02:01:48.186Z,10.00
2018-02-05T02:02:50.667Z,8.75
2018-02-05T02:03:53.159Z,9.50
2018-02-05T02:04:55.640Z,9.55
2018-02-05T02:05:58.141Z,9.02
2018-02-05T02:07:00.624Z,9.98
2018-02-05T02:08:03.109Z,8.77
2018-02-05T02:09:05.579Z,9.18
2018-02-05T02:10:08.075Z,7.80
2018-02-05T02:11:10.563Z,8.68
2018-02-05T02:12:13.046Z,8.57
2018-02-05T02:13:15.542Z,8.65
2018-02-05T02:14:18.041Z,9.25
2018-02-05T02:15:20.526Z,8.68
2018-02-05T02:16:22.991Z,8.00
2018-02-05T02:17:25.485Z,8.90
2018-02-05T02:18:27.946Z,9.75
2018-02-05T02:19:30.424Z,8.85
2018-02-05T02:20:32.899Z,9.63
2018-02-05T02:21:35.376Z,9.63
2018-02-05T02:22:37.873Z,9.05
2018-02-05T02:23:40.348Z,8.95
2018-02-05T02:24:42.841Z,9.77
2018-02-05T02:25:45.330Z,8.38
2018-02-05T02:26:47.826Z,9.27
2018-02-05T02:27:50.316Z,8.43
2018-02-05T02:28:52.809Z,9.55
2018-02-05T02:29:55.292Z,9.00
2018-02-05T02:30:57.797Z,10.55
2018-02-05T02:32:00.286Z,8.38
2018-02-05T02:33:02.773Z,8.60
2018-02-05T02:34:05.244Z,8.93
2018-02-05T02:35:07.712Z,8.27
2018-02-05T02:36:10.222Z,9.07
2018-02-05T02:37:12.709Z,9.63
2018-02-05T02:38:15.217Z,8.75
2018-02-05T02:39:17.713Z,9.80
2018-02-05T02:40:20.205Z,8.63
2018-02-05T02:41:22.684Z,8.90
2018-02-05T02:42:25.174Z,7.95
2018-02-05T02:43:27.651Z,8.30
2018-02-05T02:44:30.137Z,9.18
2018-02-05T02:45:32.622Z,8.73
2018-02-05T02:46:35.188Z,8.82
2018-02-05T02:47:37.688Z,8.45
2018-02-05T02:48:40.181Z,9.50
2018-02-05T02:49:42.654Z,9.57
2018-02-05T02:50:45.127Z,9.48
2018-02-05T02:51:47.598Z,9.30
2018-02-05T02:52:50.081Z,8.35
2018-02-05T02:53:52.585Z,8.80
2018-02-05T02:54:55.157Z,8.73
2018-02-05T02:55:57.653Z,10.25
2018-02-05T02:57:00.146Z,8.63
2018-02-05T02:58:02.624Z,9.80
2018-02-05T02:59:05.109Z,8.52
2018-02-05T03:00:07.609Z,7.95
2018-02-05T03:01:10.111Z,8.43
2018-02-05T03:02:12.601Z,8.55
2018-02-05T03:03:15.097Z,8.50
2018-02-05T03:04:17.581Z,8.65
2018-02-05T03:05:20.069Z,8.23
2018-02-05T03:06:22.543Z,8.50
2018-02-05T03:07:25.010Z,7.95
2018-02-05T03:08:27.496Z,8.80
2018-02-05T03:09:29.966Z,9.23
2018-02-05T03:10:32.453Z,9.80
2018-02-05T03:11:34.933Z,8.55
2018-02-05T03:12:37.421Z,9.10
2018-02-05T03:13:39.924Z,10.05
2018-02-05T03:14:42.415Z,9.40
2018-02-05T03:15:44.892Z,8.60
2018-02-05T03:16:47.381Z,8.73
2018-02-05T03:17:49.865Z,9.10
2018-02-05T03:18:52.335Z,9.48
2018-02-05T03:19:54.821Z,8.73
2018-02-05T03:20:57.287Z,10.00
2018-02-05T03:21:59.877Z,9.25
2018-02-05T03:23:02.436Z,8.68
2018-02-05T03:24:04.206Z,8.70
2018-02-05T03:25:06.688Z,9.50
2018-02-05T03:26:09.154Z,9.20
2018-02-05T03:27:11.637Z,9.13
2018-02-05T03:28:14.103Z,9.45
2018-02-05T03:29:16.596Z,8.38
2018-02-05T03:30:19.075Z,9.35
2018-02-05T03:31:21.556Z,9.25
2018-02-05T03:32:24.053Z,8.95
2018-02-05T03:33:26.529Z,8.05
2018-02-05T03:34:29.003Z,8.93
2018-02-05T03:35:31.482Z,9.50
2018-02-05T03:36:33.972Z,8.43
2018-02-05T03:37:36.632Z,9.10
2018-02-05T03:38:39.120Z,7.62
2018-02-05T03:39:41.621Z,7.72
2018-02-05T03:40:44.086Z,8.75
2018-02-05T03:41:46.584Z,8.60
2018-02-05T03:42:49.055Z,8.38
2018-02-05T03:43:51.540Z,8.02
2018-02-05T03:44:54.007Z,8.43
2018-02-05T03:45:56.493Z,8.48
2018-02-05T03:46:58.963Z,8.68
2018-02-05T03:48:01.431Z,8.40
2018-02-05T03:49:04.033Z,8.48
2018-02-05T03:50:06.527Z,9.02
2018-02-05T03:51:09.009Z,8.25
2018-02-05T03:52:11.501Z,8.52
2018-02-05T03:53:14.014Z,9.43
2018-02-05T03:54:16.493Z,8.60
2018-02-05T03:55:18.975Z,8.43
2018-02-05T03:56:21.465Z,9.10
2018-02-05T03:57:23.949Z,8.05
2018-02-05T03:58:26.438Z,8.52
2018-02-05T03:59:28.921Z,8.40
2018-02-05T04:00:31.430Z,8.98
2018-02-05T04:01:33.901Z,8.18
2018-02-05T04:02:36.431Z,7.85
2018-02-05T04:03:38.917Z,8.90
2018-02-05T04:04:41.383Z,8.20
2018-02-05T04:05:43.851Z,8.50
2018-02-05T08:40:58.866Z,6.30
2018-02-05T08:42:01.341Z,6.65
2018-02-05T08:43:03.873Z,6.68
2018-02-05T08:44:06.348Z,7.32
2018-02-05T08:45:08.811Z,7.97
2018-02-05T08:46:11.277Z,7.47
2018-02-05T08:47:13.743Z,7.45
2018-02-05T08:48:16.213Z,7.10
2018-02-05T08:49:18.672Z,7.45
2018-02-05T08:50:21.137Z,7.32
2018-02-05T08:51:24.446Z,7.28
2018-02-05T08:52:27.042Z,7.30
2018-02-05T08:53:30.045Z,7.40
2018-02-05T08:54:32.556Z,6.97
2018-02-05T08:55:35.023Z,7.10
2018-02-05T08:56:37.483Z,7.30
2018-02-05T08:57:39.968Z,7.55
2018-02-05T08:58:42.507Z,8.57
2018-02-05T08:59:45.036Z,7.93
2018-02-05T09:00:47.518Z,6.85
2018-02-05T09:01:50.021Z,7.20
2018-02-05T09:02:52.486Z,6.95
2018-02-05T09:03:54.943Z,7.53
2018-02-05T09:04:57.435Z,6.50
2018-02-05T09:05:59.905Z,7.03
2018-02-05T09:07:02.371Z,7.22
2018-02-05T09:08:04.865Z,6.43
2018-02-05T09:09:07.334Z,6.18
2018-02-05T09:10:09.813Z,6.10
2018-02-05T09:11:12.329Z,6.12
2018-02-05T09:12:14.778Z,6.93
2018-02-05T09:13:17.277Z,6.65
2018-02-05T09:14:19.766Z,6.95
2018-02-05T09:15:22.265Z,6.45
2018-02-05T09:16:24.727Z,6.05
2018-02-05T09:17:27.225Z,6.85
2018-02-05T09:18:29.703Z,6.40
2018-02-05T09:19:32.231Z,6.70
2018-02-05T09:20:34.698Z,6.40
2018-02-05T09:21:37.211Z,6.60
2018-02-05T09:22:39.745Z,7.50
2018-02-05T09:23:42.221Z,6.30
2018-02-05T09:24:44.678Z,5.78
2018-02-05T09:25:47.224Z,6.22
2018-02-05T09:26:49.698Z,6.10
2018-02-05T09:27:52.177Z,6.25
2018-02-05T09:28:54.652Z,6.87
2018-02-05T09:29:57.135Z,6.32
2018-02-05T09:30:59.614Z,5.57
2018-02-05T09:32:02.116Z,6.30
2018-02-05T09:33:04.570Z,6.78
2018-02-05T09:34:07.062Z,5.50
2018-02-05T09:35:09.538Z,6.28
2018-02-05T09:36:11.995Z,5.57
2018-02-05T09:37:14.455Z,5.87
2018-02-05T09:38:16.936Z,6.15
2018-02-05T09:39:19.434Z,6.18
2018-02-05T09:40:21.909Z,5.80
2018-02-05T09:41:24.392Z,6.07
2018-02-05T09:42:26.871Z,5.90
2018-02-05T09:43:29.384Z,5.87
2018-02-05T09:44:31.858Z,6.30
2018-02-05T09:45:34.342Z,6.78
2018-02-05T09:46:36.821Z,6.50
2018-02-05T09:47:39.819Z,6.03
2018-02-05T09:48:42.296Z,5.70
2018-02-05T09:49:44.777Z,6.40
2018-02-05T09:50:47.266Z,5.22
2018-02-05T09:51:49.800Z,6.15
2018-02-05T09:52:52.326Z,5.20
2018-02-05T09:53:54.759Z,5.87
2018-02-05T09:54:57.248Z,5.87
2018-02-05T09:55:59.729Z,6.25
2018-02-05T09:57:02.195Z,6.18
2018-02-05T09:58:04.675Z,6.00
2018-02-05T09:59:07.153Z,6.12
2018-02-05T10:00:09.664Z,6.10
2018-02-05T10:01:12.127Z,5.50
2018-02-05T10:02:14.590Z,6.30
2018-02-05T10:03:17.051Z,6.10
2018-02-05T10:04:19.552Z,5.45
2018-02-05T10:05:22.032Z,6.10
2018-02-05T10:06:24.616Z,5.78
2018-02-05T10:07:27.090Z,6.05
2018-02-05T10:08:29.580Z,5.70
2018-02-05T10:09:32.038Z,5.25
2018-02-05T10:10:34.513Z,5.45
2018-02-05T10:11:37.019Z,5.55
2018-02-05T10:12:39.505Z,5.78
2018-02-05T10:13:41.978Z,5.32
2018-02-05T10:14:44.455Z,5.60
2018-02-05T10:15:46.932Z,5.10
2018-02-05T10:16:49.418Z,5.32
2018-02-05T10:17:51.883Z,5.30
2018-02-05T10:18:54.357Z,5.50
2018-02-05T10:19:56.837Z,6.30
2018-02-05T10:20:59.323Z,4.80
2018-02-05T10:22:01.846Z,5.55
2018-02-05T10:23:04.353Z,5.20
2018-02-05T10:24:06.844Z,5.45
2018-02-05T10:25:09.314Z,6.28
2018-02-05T10:26:11.788Z,5.35
2018-02-05T10:27:14.258Z,5.95
2018-02-05T10:28:16.727Z,5.87
2018-02-05T10:29:19.243Z,5.53
2018-02-05T10:30:21.729Z,5.50
2018-02-05T10:31:24.213Z,5.18
2018-02-05T10:32:26.689Z,5.43
2018-02-05T10:33:29.192Z,5.87
2018-02-05T10:34:31.651Z,5.53
2018-02-05T10:35:34.110Z,5.30
2018-02-05T10:36:36.730Z,4.80
2018-02-05T10:37:39.198Z,5.25
2018-02-05T10:38:41.708Z,6.03
2018-02-05T10:39:44.142Z,5.30
2018-02-05T10:40:46.618Z,4.82
2018-02-05T10:41:49.106Z,4.90
2018-02-05T10:42:51.566Z,5.32
2018-02-05T10:43:54.084Z,5.75
2018-02-05T10:44:56.562Z,5.87
2018-02-05T10:45:59.073Z,4.80
2018-02-05T10:47:01.540Z,5.40
2018-02-05T10:48:03.999Z,6.00
2018-02-05T10:49:06.459Z,5.40
2018-02-05T10:50:08.944Z,5.30
2018-02-05T10:51:11.420Z,5.65
2018-02-05T10:52:13.890Z,5.90
2018-02-05T10:53:16.356Z,5.78
2018-02-05T10:54:18.819Z,5.60
2018-02-05T10:55:21.285Z,5.60
2018-02-05T10:56:23.765Z,5.37
2018-02-05T10:57:26.241Z,5.53
2018-02-05T10:58:28.703Z,5.37
2018-02-05T10:59:31.182Z,5.12
2018-02-05T11:00:33.661Z,5.45
2018-02-05T11:01:36.149Z,4.50
2018-02-05T11:02:38.632Z,5.22
2018-02-05T11:03:41.118Z,5.80
2018-02-05T11:04:43.600Z,5.55
2018-02-05T11:05:46.081Z,5.72
2018-02-05T11:06:48.579Z,5.10
2018-02-05T11:07:51.061Z,5.10
2018-02-05T11:08:53.541Z,6.03
2018-02-05T11:09:56.252Z,5.60
2018-02-05T11:10:58.714Z,4.93
2018-02-05T11:12:01.178Z,5.85
2018-02-05T11:13:03.649Z,6.00
2018-02-05T11:14:06.129Z,4.97
2018-02-05T11:15:08.599Z,5.82
2018-02-05T11:16:11.062Z,5.30
2018-02-05T11:17:13.535Z,5.30
2018-02-05T11:18:16.012Z,4.78
2018-02-05T11:19:18.489Z,4.43
2018-02-05T11:20:20.979Z,5.15
2018-02-05T11:21:23.455Z,5.22
2018-02-05T11:22:25.933Z,5.40
2018-02-05T11:23:28.418Z,5.25
2018-02-05T11:24:30.921Z,5.60
2018-02-05T11:25:33.410Z,5.72
2018-02-05T11:26:36.041Z,5.90
2018-02-05T11:27:45.279Z,6.12
2018-02-05T11:28:47.966Z,4.93
2018-02-05T11:29:50.497Z,5.30
2018-02-05T11:30:53.006Z,5.55
2018-02-05T11:31:55.484Z,5.03
2018-02-05T11:32:58.018Z,5.07
2018-02-05T11:34:00.498Z,5.07
2018-02-05T11:35:02.985Z,6.03
2018-02-05T11:36:05.472Z,5.55
2018-02-05T11:37:07.930Z,5.50
2018-02-05T11:38:10.404Z,4.95
2018-02-05T11:39:12.878Z,5.50
2018-02-05T11:40:15.357Z,5.78
2018-02-05T11:41:17.823Z,6.07
2018-02-05T11:42:20.297Z,5.20
2018-02-05T11:43:22.754Z,6.57
2018-02-05T11:44:25.739Z,6.60
2018-02-05T11:45:28.213Z,6.35
2018-02-05T11:46:30.686Z,5.78
2018-02-05T11:47:33.198Z,5.87
2018-02-05T11:48:35.662Z,5.55
2018-02-05T11:49:38.146Z,6.80
2018-02-05T11:50:40.607Z,5.57
2018-02-05T11:51:43.103Z,6.32
2018-02-05T11:52:45.557Z,5.28
2018-02-05T11:53:48.035Z,6.30
2018-02-05T11:54:50.517Z,6.53
2018-02-05T11:55:53.065Z,5.78
2018-02-05T11:56:55.533Z,5.80
2018-02-05T11:57:58.020Z,6.22
2018-02-05T11:59:00.828Z,5.28
2018-02-05T12:00:03.291Z,6.05
2018-02-05T12:01:05.783Z,6.60
2018-02-05T12:02:08.261Z,5.30
2018-02-05T12:03:10.735Z,6.40
2018-02-05T12:04:13.223Z,5.85
2018-02-05T12:05:15.755Z,5.85
2018-02-05T12:06:18.233Z,5.85
2018-02-05T12:07:20.709Z,5.40
2018-02-05T12:08:23.173Z,5.47
2018-02-05T12:09:25.642Z,5.87
2018-02-05T12:10:28.106Z,5.60
2018-02-05T12:11:30.583Z,6.20
2018-02-05T12:12:33.060Z,6.15
2018-02-05T12:13:35.573Z,5.78
2018-02-05T12:14:38.053Z,5.53
2018-02-05T12:15:40.534Z,5.10
2018-02-05T12:16:42.995Z,5.60
2018-02-05T12:17:45.459Z,6.53
2018-02-05T12:18:47.954Z,6.45
2018-02-05T12:19:50.429Z,5.45
2018-02-05T12:20:52.886Z,5.70
2018-02-05T12:21:55.350Z,5.80
2018-02-05T12:22:57.814Z,5.47
2018-02-05T12:24:00.307Z,6.00
2018-02-05T12:25:02.771Z,5.57
2018-02-05T12:26:05.235Z,5.90
2018-02-05T12:27:07.715Z,5.20
2018-02-05T12:28:10.191Z,5.37
2018-02-05T12:29:12.677Z,5.65
2018-02-05T12:30:15.158Z,5.93
2018-02-05T12:31:17.615Z,5.47
2018-02-05T12:32:20.074Z,5.05
2018-02-05T12:33:22.545Z,5.55
2018-02-05T12:34:25.027Z,5.30
2018-02-05T12:35:27.491Z,4.70
2018-02-05T12:36:29.959Z,5.22
2018-02-05T12:37:32.438Z,4.60
2018-02-05T12:38:34.917Z,5.93
2018-02-05T12:39:37.466Z,4.85
2018-02-05T12:40:39.946Z,5.05
2018-02-05T12:41:42.411Z,4.82
2018-02-05T12:42:44.893Z,4.70
2018-02-05T12:43:47.381Z,4.85
2018-02-05T12:44:49.864Z,5.05
2018-02-05T12:45:52.334Z,4.70
2018-02-05T12:46:54.812Z,4.70
2018-02-05T12:47:57.279Z,4.87
2018-02-05T12:48:59.744Z,5.55
2018-02-05T12:50:02.228Z,4.70
2018-02-05T12:51:04.695Z,4.43
2018-02-05T12:52:07.443Z,5.25
2018-02-05T12:53:09.927Z,5.00
2018-02-05T12:54:12.405Z,4.43
2018-02-05T12:55:14.910Z,4.72
2018-02-05T12:56:17.482Z,4.15
2018-02-05T12:57:19.966Z,4.30
2018-02-05T12:58:22.435Z,3.90
2018-02-05T12:59:24.921Z,3.78
2018-02-05T13:00:31.111Z,4.53
2018-02-05T13:01:52.271Z,4.25
2018-02-05T13:03:09.628Z,4.40
2018-02-05T13:04:16.518Z,4.45
2018-02-05T13:05:24.462Z,4.37
2018-02-05T13:06:43.651Z,4.82
2018-02-05T13:07:46.106Z,4.37
2018-02-05T13:08:48.634Z,4.18
2018-02-05T13:09:51.091Z,4.18
2018-02-05T13:10:53.570Z,4.47
2018-02-05T13:11:56.031Z,4.70
2018-02-05T13:12:58.511Z,4.70
2018-02-05T13:14:01.089Z,4.32
2018-02-05T13:15:03.550Z,4.70
2018-02-05T13:16:06.039Z,4.47
2018-02-05T13:17:08.522Z,5.12
2018-02-05T13:18:11.008Z,5.78
2018-02-05T13:19:13.489Z,5.22
2018-02-05T13:20:15.973Z,4.07
2018-02-05T13:21:18.534Z,4.22
2018-02-05T13:22:21.034Z,4.50
2018-02-05T13:23:23.495Z,4.15
2018-02-05T13:24:25.985Z,4.37
2018-02-05T13:25:28.470Z,4.62
2018-02-05T13:26:30.958Z,4.00
2018-02-05T13:27:33.452Z,4.32
2018-02-05T13:28:35.922Z,4.55
2018-02-05T13:29:38.422Z,3.90
2018-02-05T13:30:41.921Z,3.92
2018-02-05T13:31:44.747Z,4.20
2018-02-05T13:32:47.210Z,4.22
2018-02-05T13:33:49.733Z,4.32
2018-02-05T13:34:52.230Z,3.90
2018-02-05T13:35:54.709Z,4.07
2018-02-05T13:36:57.190Z,4.07
2018-02-05T13:37:59.681Z,3.87
2018-02-05T13:39:02.209Z,4.10
2018-02-05T13:40:04.671Z,4.18
2018-02-05T13:41:07.135Z,3.55
2018-02-05T13:42:09.601Z,4.43
2018-02-05T13:43:12.085Z,4.50
2018-02-05T13:44:14.555Z,3.83
2018-02-05T13:45:17.708Z,3.70
2018-02-05T13:46:20.327Z,3.90
2018-02-05T13:47:22.817Z,5.00
2018-02-05T13:48:25.292Z,4.25
2018-02-05T13:49:27.789Z,4.30
2018-02-05T13:50:30.276Z,4.25
2018-02-05T13:51:32.756Z,4.93
2018-02-05T13:52:35.237Z,4.95
2018-02-05T13:53:37.723Z,4.72
2018-02-05T13:54:40.279Z,4.72
2018-02-05T13:55:42.825Z,5.00
2018-02-05T13:56:45.470Z,4.87
2018-02-05T13:57:48.030Z,4.93
2018-02-05T13:58:50.627Z,4.80
2018-02-05T13:59:53.219Z,4.65
2018-02-05T14:00:55.725Z,4.68
2018-02-05T14:01:58.320Z,4.07
2018-02-05T14:03:00.834Z,4.43
2018-02-05T14:04:03.307Z,4.28
2018-02-05T14:05:05.790Z,4.57
2018-02-05T14:06:08.264Z,4.72
2018-02-05T14:07:10.751Z,4.43
2018-02-05T14:08:13.233Z,4.78
2018-02-05T14:09:15.707Z,4.35
2018-02-05T14:10:18.180Z,4.90
2018-02-05T14:11:20.654Z,4.35
2018-02-05T14:12:23.146Z,4.82
2018-02-05T14:13:25.623Z,4.87
2018-02-05T14:14:28.099Z,5.00
2018-02-05T14:15:30.651Z,5.47
2018-02-05T14:16:33.123Z,4.90
2018-02-05T14:17:35.608Z,44.95
2018-02-05T14:18:38.083Z,6.03
2018-02-05T14:19:40.547Z,5.57
2018-02-05T14:20:43.011Z,5.65
2018-02-05T14:21:45.564Z,5.37
2018-02-05T14:22:48.054Z,5.35
2018-02-05T14:23:50.680Z,5.22
2018-02-05T14:24:53.165Z,5.15
2018-02-05T14:25:55.659Z,4.65
2018-02-05T14:26:58.119Z,5.22
2018-02-05T14:28:00.592Z,5.65
2018-02-05T14:29:03.093Z,4.35
2018-02-05T14:30:05.574Z,5.20
2018-02-05T14:31:08.041Z,5.40
2018-02-05T14:32:10.516Z,4.60
2018-02-05T14:33:12.978Z,5.85
2018-02-05T14:34:15.465Z,4.87
2018-02-05T14:35:17.973Z,5.00
2018-02-05T14:36:20.462Z,5.87
2018-02-05T14:37:22.965Z,5.00
2018-02-05T14:38:25.440Z,4.75
2018-02-05T14:39:27.929Z,5.40
2018-02-05T14:40:30.399Z,5.22
2018-02-05T14:41:32.874Z,5.70
2018-02-05T14:42:35.358Z,5.47
2018-02-05T14:43:37.868Z,5.70
2018-02-05T14:44:40.350Z,5.25
2018-02-05T14:45:42.853Z,5.25
2018-02-05T14:46:45.345Z,5.30
2018-02-05T14:47:47.887Z,5.40
2018-02-05T14:48:50.363Z,5.15
2018-02-05T14:49:52.844Z,5.70
2018-02-05T14:50:55.328Z,5.70
2018-02-05T14:51:57.881Z,5.55
2018-02-05T14:53:00.373Z,5.45
2018-02-05T14:54:03.022Z,5.82
2018-02-05T14:55:05.505Z,6.37
2018-02-05T14:56:07.975Z,6.07
2018-02-05T14:57:10.457Z,5.82
2018-02-05T14:58:12.938Z,5.65
2018-02-05T14:59:15.418Z,6.28
2018-02-05T15:00:17.950Z,5.75
2018-02-05T15:01:20.450Z,5.70
2018-02-05T15:02:22.957Z,6.45
2018-02-05T15:03:25.478Z,7.18
2018-02-05T15:04:27.951Z,6.40
2018-02-05T15:05:30.451Z,7.97
2018-02-05T15:06:32.952Z,8.05
2018-02-05T15:07:35.465Z,7.47
2018-02-05T15:08:37.978Z,6.90
2018-02-05T15:09:40.438Z,7.22
2018-02-05T15:10:42.944Z,7.03
2018-02-05T15:11:45.444Z,6.68
2018-02-05T15:12:47.957Z,7.03
2018-02-05T15:13:50.433Z,7.15
2018-02-05T15:14:52.926Z,6.95
2018-02-05T15:15:55.400Z,6.55
2018-02-05T15:16:57.888Z,6.87
2018-02-05T15:18:00.376Z,6.35
2018-02-05T15:19:02.847Z,7.10
2018-02-05T15:20:05.307Z,6.40
2018-02-05T15:21:07.773Z,7.03
2018-02-05T15:22:10.235Z,6.97
2018-02-05T15:23:12.695Z,6.78
2018-02-05T15:24:15.180Z,6.37
2018-02-05T15:25:17.665Z,6.80
2018-02-05T15:26:20.136Z,7.40
2018-02-05T15:27:22.595Z,7.47
2018-02-05T15:28:25.081Z,7.20
2018-02-05T15:29:27.596Z,7.40
2018-02-05T15:30:30.070Z,6.75
2018-02-05T15:31:32.543Z,7.50
2018-02-05T15:32:35.025Z,6.32
2018-02-05T15:33:37.509Z,7.15
2018-02-05T15:34:40.014Z,7.25
2018-02-05T15:35:42.493Z,6.87
2018-02-05T15:36:44.973Z,6.90
2018-02-05T15:37:47.454Z,7.30
2018-02-05T15:38:49.923Z,7.57
2018-02-05T15:39:52.383Z,7.28
2018-02-05T15:40:54.861Z,7.10
2018-02-05T15:41:57.338Z,6.80
2018-02-05T15:42:59.795Z,7.47
2018-02-05T15:44:02.282Z,7.22
2018-02-05T15:45:04.743Z,6.25
2018-02-05T15:46:07.237Z,6.05
2018-02-05T15:47:09.710Z,6.62
2018-02-05T15:48:12.221Z,6.18
2018-02-05T15:49:14.763Z,7.03
2018-02-05T15:50:17.268Z,6.05
2018-02-05T15:51:19.741Z,6.70
2018-02-05T15:52:22.234Z,7.15
2018-02-05T15:53:24.718Z,7.10
2018-02-05T15:54:27.191Z,7.50
2018-02-05T15:55:29.695Z,7.07
2018-02-05T15:56:32.206Z,7.47
2018-02-05T15:57:34.672Z,6.57
2018-02-05T15:58:37.130Z,6.97
2018-02-05T15:59:39.590Z,8.18
2018-02-05T16:00:42.077Z,7.70
2018-02-05T16:01:45.069Z,6.82
2018-02-05T16:02:47.540Z,7.87
2018-02-05T16:03:50.018Z,8.20
2018-02-05T16:04:52.497Z,8.20
2018-02-05T16:05:54.958Z,7.93
2018-02-05T16:06:57.426Z,8.50
2018-02-05T16:07:59.887Z,7.95
2018-02-05T16:09:02.368Z,8.13
2018-02-05T16:10:04.841Z,8.88
2018-02-05T16:11:07.308Z,8.55
2018-02-05T16:12:09.825Z,8.00
2018-02-05T16:13:12.293Z,7.90
2018-02-05T16:14:14.803Z,8.75
2018-02-05T16:15:17.263Z,7.93
2018-02-05T16:16:19.744Z,9.00
2018-02-05T16:17:22.207Z,8.90
2018-02-05T16:18:24.681Z,9.15
2018-02-05T16:19:27.143Z,7.85
2018-02-05T16:20:29.627Z,8.57
2018-02-05T16:21:32.103Z,8.13
2018-02-05T16:22:34.594Z,9.15
2018-02-05T16:23:37.095Z,9.10
2018-02-05T16:24:39.559Z,9.13
2018-02-05T16:25:42.033Z,9.85
2018-02-05T16:26:44.521Z,9.27
2018-02-05T16:27:46.997Z,8.88
2018-02-05T16:28:49.455Z,9.80
2018-02-05T16:29:51.936Z,9.30
2018-02-05T16:30:54.404Z,9.00
2018-02-05T16:31:56.881Z,9.88
2018-02-05T16:32:59.350Z,8.48
2018-02-05T16:34:01.904Z,9.02
2018-02-05T16:35:04.381Z,9.30
2018-02-05T16:36:06.861Z,10.40
2018-02-05T16:37:09.387Z,10.15
2018-02-05T16:38:11.869Z,11.10
2018-02-05T16:39:14.352Z,10.38
2018-02-05T16:40:16.811Z,10.23
2018-02-05T16:41:19.284Z,9.75
2018-02-05T16:42:21.803Z,9.40
2018-02-05T16:43:24.274Z,10.15
2018-02-05T16:44:26.761Z,10.40
2018-02-05T16:45:29.245Z,9.93
2018-02-05T16:46:31.724Z,8.85
2018-02-05T16:47:34.201Z,8.90
2018-02-05T16:48:36.728Z,8.45
2018-02-05T16:49:39.186Z,8.27
2018-02-05T16:50:41.745Z,9.10
2018-02-05T16:51:44.210Z,9.40
2018-02-05T16:52:46.688Z,8.80
2018-02-05T16:53:49.151Z,7.75
2018-02-05T16:54:51.653Z,8.50
2018-02-05T16:55:54.130Z,8.57
2018-02-05T16:56:56.641Z,9.25
2018-02-05T16:57:59.143Z,8.98
2018-02-05T16:59:01.709Z,9.40
2018-02-05T17:00:04.241Z,9.93
2018-02-05T17:01:07.040Z,9.80
2018-02-05T17:02:09.536Z,9.30
2018-02-05T17:03:12.165Z,8.43
2018-02-05T17:04:14.643Z,9.68
2018-02-05T17:05:17.119Z,8.95
2018-02-05T17:06:19.592Z,9.80
2018-02-05T17:07:22.089Z,9.07
2018-02-05T17:08:24.731Z,9.40
2018-02-05T17:09:27.245Z,9.00
2018-02-05T17:10:29.722Z,8.70
2018-02-05T17:11:32.190Z,8.75
2018-02-05T17:12:34.664Z,9.63
2018-02-05T17:13:37.127Z,9.07
2018-02-05T17:14:39.591Z,10.10
2018-02-05T17:15:42.091Z,9.25
2018-02-05T17:16:44.621Z,9.15
2018-02-05T17:17:47.087Z,9.65
2018-02-05T17:18:49.609Z,9.60
2018-02-05T17:19:52.086Z,9.60
2018-02-05T17:20:54.557Z,9.43
2018-02-05T17:21:57.088Z,10.30
2018-02-05T17:22:59.642Z,9.60
2018-02-05T17:24:02.465Z,10.20
2018-02-05T17:25:05.153Z,10.00
2018-02-05T17:26:07.749Z,10.20
2018-02-05T17:27:10.261Z,10.50
2018-02-05T17:28:12.762Z,10.35
2018-02-05T17:29:16.709Z,10.68
2018-02-05T17:30:19.338Z,9.15
2018-02-05T17:31:21.953Z,10.10
2018-02-05T17:32:25.287Z,10.45
2018-02-05T17:33:31.030Z,9.95
2018-02-05T17:34:33.544Z,9.73
2018-02-05T17:35:36.095Z,10.20
2018-02-05T17:36:38.571Z,9.43
2018-02-05T17:37:41.064Z,9.80
2018-02-05T17:38:44.020Z,11.43
2018-02-05T17:39:47.071Z,9.75
2018-02-05T17:40:49.553Z,9.75
2018-02-05T17:41:52.056Z,9.88
2018-02-05T17:42:54.522Z,10.65
2018-02-05T17:43:57.067Z,9.70
2018-02-05T17:44:59.686Z,10.20
2018-02-05T17:46:02.569Z,10.38
2018-02-05T17:47:05.057Z,10.18
2018-02-05T17:48:08.005Z,11.55
2018-02-05T17:49:10.477Z,10.68
2018-02-05T17:50:12.961Z,10.30
2018-02-05T17:51:15.956Z,11.18
2018-02-05T17:52:18.830Z,10.40
2018-02-05T17:53:21.628Z,10.75
2018-02-05T17:54:24.305Z,10.80
2018-02-05T17:55:26.828Z,10.30
2018-02-05T17:56:29.321Z,11.50
2018-02-05T17:57:31.809Z,10.00
2018-02-05T17:58:34.792Z,10.48
2018-02-05T17:59:37.317Z,10.38
2018-02-05T18:00:39.961Z,10.48
2018-02-05T18:01:42.600Z,9.70
2018-02-05T18:02:45.250Z,10.20
2018-02-05T18:03:47.778Z,10.25
2018-02-05T18:04:50.562Z,10.15
2018-02-05T18:05:53.303Z,11.60
2018-02-05T18:06:55.786Z,9.70
2018-02-05T18:07:58.294Z,11.27
2018-02-05T18:09:01.267Z,9.80
2018-02-05T18:10:04.541Z,10.63
2018-02-05T18:11:07.050Z,10.27
2018-02-05T18:12:09.565Z,11.05
2018-02-05T18:13:12.153Z,10.55
2018-02-05T18:14:14.641Z,11.27
2018-02-05T18:15:17.106Z,11.10
2018-02-05T18:16:19.731Z,10.85
2018-02-05T18:17:22.218Z,11.27
2018-02-05T18:18:25.000Z,11.40
2018-02-05T18:19:27.485Z,10.32
2018-02-05T18:20:29.958Z,11.15
2018-02-05T18:21:32.481Z,11.12
2018-02-05T18:22:34.950Z,11.00
2018-02-05T18:23:37.853Z,10.55
2018-02-05T18:24:40.333Z,11.85